Time;durP1;ratioP1;P1;durP2;ratioP2;P2;SDS_P1;SDS_P2;PMS_P1;PMS_P2;Temp;Humidity;BMP_temperature;BMP_pressure;BME280_temperature;BME280_humidity;BME280_pressure;Samples;Min_cycle;Max_cycle;Signal;HPM_P1;HPM_P2
2022/11/04 00:00:46;;;;;;;45.13;29.13;;;8.90;99.90;;;;;;4881366;29;20056;-67
2022/11/04 00:03:13;;;;;;;9.32;6.70;;;8.90;99.90;;;;;;4884589;29;20045;-62
2022/11/04 00:05:40;;;;;;;11.73;6.25;;;8.90;99.90;;;;;;4886305;29;20045;-60
2022/11/04 00:08:22;;;;;;;9.90;4.95;;;8.90;99.90;;;;;;4880076;29;20105;-61
2022/11/04 00:13:41;;;;;;;9.63;5.47;;;8.90;99.90;;;;;;4876968;29;20045;-65
2022/11/04 00:18:54;;;;;;;9.93;6.40;;;8.90;99.90;;;;;;4877666;29;20041;-60
2022/11/04 00:29:38;;;;;;;13.52;6.63;;;9.00;99.90;;;;;;4880424;29;20476;-61
2022/11/04 00:34:50;;;;;;;10.60;6.50;;;9.00;99.90;;;;;;4876203;29;20142;-60
2022/11/04 00:37:17;;;;;;;12.90;6.30;;;9.00;99.90;;;;;;4878686;29;20079;-61
2022/11/04 00:39:44;;;;;;;10.90;7.20;;;9.00;99.90;;;;;;4884881;29;20101;-61
2022/11/04 00:42:11;;;;;;;14.57;7.90;;;9.10;99.90;;;;;;4866088;29;20053;-63
2022/11/04 00:44:38;;;;;;;11.73;7.10;;;9.10;99.90;;;;;;4877276;29;20041;-62
2022/11/04 00:47:24;;;;;;;14.63;7.13;;;9.10;99.90;;;;;;4884822;29;20096;-62
2022/11/04 00:49:52;;;;;;;12.70;7.45;;;9.10;99.90;;;;;;4876144;29;20498;-62
2022/11/04 00:52:19;;;;;;;10.65;7.13;;;9.10;99.90;;;;;;4865130;29;20045;-61
2022/11/04 00:54:46;;;;;;;12.52;6.88;;;9.10;99.90;;;;;;4861690;29;20109;-61
2022/11/04 00:57:13;;;;;;;12.82;6.97;;;9.00;99.90;;;;;;4879925;29;20044;-60
2022/11/04 00:59:40;;;;;;;15.18;7.05;;;9.10;99.90;;;;;;4886629;29;20127;-60
2022/11/04 01:02:08;;;;;;;13.57;6.13;;;9.00;99.90;;;;;;4868894;29;20394;-62
2022/11/04 01:04:35;;;;;;;10.07;6.65;;;9.00;99.90;;;;;;4860449;29;20081;-63
2022/11/04 01:07:02;;;;;;;10.75;6.88;;;9.00;99.90;;;;;;4873000;29;20074;-60
2022/11/04 01:09:28;;;;;;;11.25;5.70;;;9.00;99.90;;;;;;4847322;29;20037;-60
2022/11/04 01:11:55;;;;;;;10.20;6.30;;;9.00;99.90;;;;;;4878015;29;20517;-60
2022/11/04 01:14:22;;;;;;;8.77;5.70;;;9.00;99.90;;;;;;4886410;29;20093;-61
2022/11/04 01:16:49;;;;;;;9.07;5.60;;;9.00;99.90;;;;;;4861909;29;20081;-61
2022/11/04 01:19:16;;;;;;;11.05;5.35;;;9.00;99.90;;;;;;4862569;29;20096;-60
2022/11/04 01:21:43;;;;;;;9.68;5.25;;;9.00;99.90;;;;;;4887034;29;20057;-59
2022/11/04 01:24:10;;;;;;;7.97;5.10;;;9.00;99.90;;;;;;4878494;29;20076;-59
2022/11/04 01:26:36;;;;;;;6.90;4.68;;;9.00;99.90;;;;;;4862063;29;20044;-60
2022/11/04 01:29:03;;;;;;;8.13;4.82;;;9.00;99.90;;;;;;4878499;29;20045;-61
2022/11/04 01:31:30;;;;;;;12.60;6.03;;;9.10;99.90;;;;;;4879313;29;20041;-61
2022/11/04 01:33:57;;;;;;;6.45;4.60;;;9.10;99.90;;;;;;4855774;29;20050;-61
2022/11/04 01:36:25;;;;;;;6.10;3.42;;;9.10;99.90;;;;;;4885989;29;20080;-61
2022/11/04 01:38:53;;;;;;;9.55;4.68;;;9.10;99.90;;;;;;4861142;29;20053;-61
2022/11/04 01:41:38;;;;;;;7.03;3.90;;;9.10;99.90;;;;;;4855408;29;20060;-61
2022/11/04 01:44:42;;;;;;;10.05;4.38;;;9.10;99.90;;;;;;4884097;29;20041;-62
2022/11/04 01:47:16;;;;;;;8.40;4.97;;;9.00;99.90;;;;;;4885477;29;20057;-61
2022/11/04 01:49:44;;;;;;;7.43;4.32;;;9.00;99.90;;;;;;4854544;29;20100;-61
2022/11/04 01:52:18;;;;;;;8.00;4.57;;;9.00;99.90;;;;;;4855380;29;20049;-61
2022/11/04 01:54:46;;;;;;;9.38;4.78;;;9.00;99.90;;;;;;4879863;29;20499;-61
2022/11/04 01:57:17;;;;;;;5.57;4.47;;;9.00;99.90;;;;;;4865717;29;20037;-61
2022/11/04 01:59:43;;;;;;;7.03;4.20;;;9.00;99.90;;;;;;4877155;29;20497;-61
2022/11/04 02:02:10;;;;;;;7.53;3.55;;;9.00;99.90;;;;;;4846435;29;20069;-61
2022/11/04 02:04:38;;;;;;;7.47;3.63;;;8.90;99.90;;;;;;4854047;29;20396;-61
2022/11/04 02:07:07;;;;;;;4.35;2.63;;;8.80;99.90;;;;;;4861104;29;20057;-61
2022/11/04 02:09:35;;;;;;;6.22;2.88;;;8.80;99.90;;;;;;4855213;29;20046;-61
2022/11/04 02:14:47;;;;;;;4.38;2.20;;;8.80;99.90;;;;;;4877760;29;20093;-61
2022/11/04 02:17:17;;;;;;;5.82;2.60;;;8.90;99.90;;;;;;4876636;29;20037;-61
2022/11/04 02:19:59;;;;;;;7.05;2.15;;;8.80;99.90;;;;;;4878818;29;20093;-64
2022/11/04 02:22:48;;;;;;;5.38;2.17;;;8.80;99.90;;;;;;4872608;29;20100;-61
2022/11/04 02:25:33;;;;;;;6.65;2.20;;;8.80;99.90;;;;;;4877877;29;20440;-61
2022/11/04 02:28:17;;;;;;;5.55;2.35;;;8.80;99.90;;;;;;4882846;29;20493;-68
2022/11/04 02:30:52;;;;;;;5.95;1.90;;;8.80;99.90;;;;;;4871472;29;20489;-66
2022/11/04 02:33:32;;;;;;;7.97;2.85;;;8.80;99.90;;;;;;4869412;29;20100;-61
2022/11/04 02:36:06;;;;;;;4.57;2.65;;;8.80;99.90;;;;;;4860894;29;20160;-61
2022/11/04 02:38:44;;;;;;;7.15;3.50;;;8.90;99.90;;;;;;4861047;29;20080;-61
2022/11/04 02:41:40;;;;;;;5.07;2.00;;;8.90;99.90;;;;;;4860919;29;20084;-63
2022/11/04 02:44:49;;;;;;;8.68;3.45;;;8.90;99.90;;;;;;4858569;29;20108;-60
2022/11/04 02:47:18;;;;;;;;;;;8.90;99.90;;;;;;4854762;29;20100;-61
2022/11/04 02:50:04;;;;;;;6.43;3.05;;;8.90;99.90;;;;;;4859969;29;19919;-61
2022/11/04 02:52:49;;;;;;;9.43;4.38;;;9.00;99.90;;;;;;4864314;29;20041;-61
2022/11/04 02:55:20;;;;;;;8.98;4.18;;;9.00;99.90;;;;;;4878063;29;20041;-61
2022/11/04 02:57:47;;;;;;;8.80;5.13;;;9.00;99.90;;;;;;4846996;29;20527;-61
2022/11/04 03:00:14;;;;;;;13.45;7.18;;;9.00;99.90;;;;;;4860161;29;20041;-61
2022/11/04 03:02:53;;;;;;;11.80;7.55;;;9.00;99.90;;;;;;4860326;29;20045;-61
2022/11/04 03:05:24;;;;;;;16.77;9.13;;;9.00;99.90;;;;;;4861398;29;20078;-61
2022/11/04 03:07:51;;;;;;;13.82;8.73;;;9.00;99.90;;;;;;4860462;29;20372;-61
2022/11/04 03:10:23;;;;;;;14.18;9.05;;;9.00;99.90;;;;;;4860131;29;20050;-61
2022/11/04 03:13:10;;;;;;;18.65;10.40;;;9.00;99.90;;;;;;4861168;29;20064;-61
2022/11/04 03:15:38;;;;;;;18.00;9.68;;;9.00;99.90;;;;;;4860404;29;20449;-61
2022/11/04 03:18:27;;;;;;;34.08;11.40;;;8.90;99.90;;;;;;4876046;29;20084;-61
2022/11/04 03:20:55;;;;;;;18.00;11.30;;;8.90;99.90;;;;;;4877170;29;20413;-61
2022/11/04 03:23:22;;;;;;;19.23;11.85;;;8.90;99.90;;;;;;4860747;29;20151;-61
2022/11/04 03:25:50;;;;;;;17.92;11.50;;;8.90;99.90;;;;;;4860142;29;20096;-60
2022/11/04 03:28:38;;;;;;;17.60;11.63;;;8.90;99.90;;;;;;4860281;29;20088;-61
2022/11/04 03:31:05;;;;;;;17.92;12.48;;;8.90;99.90;;;;;;4839247;29;20045;-61
2022/11/04 03:33:38;;;;;;;18.25;12.20;;;8.90;99.90;;;;;;4880516;29;20101;-61
2022/11/04 03:36:07;;;;;;;19.15;11.68;;;8.80;99.90;;;;;;4863638;29;20052;-60
2022/11/04 03:38:35;;;;;;;24.10;11.37;;;8.80;99.90;;;;;;4864609;29;20045;-61
2022/11/04 03:41:03;;;;;;;14.63;11.15;;;8.70;99.90;;;;;;4859184;29;20470;-60
2022/11/04 03:43:30;;;;;;;16.95;10.15;;;8.70;99.90;;;;;;4860670;29;20040;-61
2022/11/04 03:45:57;;;;;;;15.63;9.73;;;8.60;99.90;;;;;;4846249;29;20097;-60
2022/11/04 03:48:23;;;;;;;15.15;9.57;;;8.60;99.90;;;;;;4866537;29;20124;-61
2022/11/04 03:50:50;;;;;;;17.27;9.75;;;8.60;99.90;;;;;;4885051;29;20105;-66
2022/11/04 03:53:21;;;;;;;16.50;9.48;;;8.60;99.90;;;;;;4860707;29;20080;-61
2022/11/04 03:56:04;;;;;;;15.98;9.50;;;8.60;99.90;;;;;;4883118;29;20136;-66
2022/11/04 03:58:58;;;;;;;14.75;8.13;;;8.60;99.90;;;;;;4854693;29;20101;-60
2022/11/04 04:01:39;;;;;;;14.70;8.35;;;8.50;99.90;;;;;;4857129;29;20053;-60
2022/11/04 04:04:14;;;;;;;15.38;8.63;;;8.50;99.90;;;;;;4880499;29;20041;-61
2022/11/04 04:06:41;;;;;;;11.95;6.85;;;8.50;99.90;;;;;;4869028;29;20053;-61
2022/11/04 04:09:25;;;;;;;15.98;6.82;;;8.50;99.90;;;;;;4863840;29;20122;-60
2022/11/04 04:12:37;;;;;;;12.27;6.65;;;8.50;99.90;;;;;;4864019;29;20073;-63
2022/11/04 04:15:10;;;;;;;12.05;6.32;;;8.50;99.90;;;;;;4851822;29;20045;-61
2022/11/04 04:17:44;;;;;;;9.57;5.90;;;8.50;99.90;;;;;;4848596;29;20088;-61
2022/11/04 04:20:16;;;;;;;12.43;6.38;;;8.50;99.90;;;;;;4863787;29;20057;-63
2022/11/04 04:22:46;;;;;;;12.50;5.65;;;8.50;99.90;;;;;;4866513;29;20053;-62
2022/11/04 04:27:58;;;;;;;14.63;5.55;;;8.50;99.90;;;;;;4861401;29;20045;-65
2022/11/04 04:30:25;;;;;;;12.68;6.18;;;8.50;99.90;;;;;;4862898;29;20103;-60
2022/11/04 04:32:58;;;;;;;9.32;4.50;;;8.50;99.90;;;;;;4878686;29;20077;-60
2022/11/04 04:35:41;;;;;;;11.38;5.38;;;8.40;99.90;;;;;;4830957;29;20097;-60
2022/11/04 04:47:19;;;;;;;10.38;4.28;;;8.40;99.90;;;;;;4865266;29;20084;-62
2022/11/04 04:49:56;;;;;;;7.88;4.40;;;8.30;99.90;;;;;;4856080;29;20060;-60
2022/11/04 04:52:24;;;;;;;9.02;4.07;;;8.30;99.90;;;;;;4864883;29;20045;-61
2022/11/04 04:54:51;;;;;;;9.13;5.07;;;8.30;99.90;;;;;;4881232;29;20095;-62
2022/11/04 04:57:18;;;;;;;13.13;5.13;;;8.30;99.90;;;;;;4879169;29;20064;-61
2022/11/04 04:59:45;;;;;;;10.10;4.88;;;8.30;99.90;;;;;;4877272;29;20045;-60
2022/11/04 05:02:12;;;;;;;10.93;5.82;;;8.30;99.90;;;;;;4883553;29;20040;-63
2022/11/04 05:04:39;;;;;;;12.60;5.63;;;8.20;99.90;;;;;;4839407;29;20041;-61
2022/11/04 05:07:08;;;;;;;13.55;6.00;;;8.20;99.90;;;;;;4845919;29;20419;-60
2022/11/04 05:09:35;;;;;;;13.85;5.72;;;8.20;99.90;;;;;;4868499;29;20105;-60
2022/11/04 05:12:02;;;;;;;13.10;5.30;;;8.20;99.90;;;;;;4865141;29;20058;-60
2022/11/04 05:14:29;;;;;;;16.10;6.10;;;8.20;99.90;;;;;;4851774;29;20042;-61
2022/11/04 05:16:56;;;;;;;15.57;7.00;;;8.20;99.90;;;;;;4865576;29;20041;-60
2022/11/04 05:19:23;;;;;;;16.05;6.50;;;8.10;99.90;;;;;;4868327;29;20097;-61
2022/11/04 05:21:50;;;;;;;13.75;7.10;;;8.10;99.90;;;;;;4860766;29;20049;-61
2022/11/04 05:24:16;;;;;;;15.73;7.45;;;8.10;99.90;;;;;;4860322;29;20049;-61
2022/11/04 05:26:43;;;;;;;9.88;6.82;;;8.10;99.90;;;;;;4860716;29;20082;-60
2022/11/04 05:29:11;;;;;;;15.45;8.23;;;8.10;99.90;;;;;;4860394;29;20110;-66
2022/11/04 05:31:38;;;;;;;16.40;6.90;;;8.10;99.90;;;;;;4860851;29;20486;-60
2022/11/04 05:34:05;;;;;;;13.05;7.15;;;8.10;99.90;;;;;;4870530;29;20041;-60
2022/11/04 05:36:32;;;;;;;13.02;8.18;;;8.00;99.90;;;;;;4850793;29;20079;-61
2022/11/04 05:38:59;;;;;;;15.88;9.68;;;8.00;99.90;;;;;;4851470;29;20057;-61
2022/11/04 05:41:26;;;;;;;17.55;9.00;;;7.90;99.90;;;;;;4867907;29;20049;-60
2022/11/04 05:43:53;;;;;;;19.55;10.30;;;7.90;99.90;;;;;;4864691;29;20489;-60
2022/11/04 05:46:21;;;;;;;22.70;10.90;;;7.90;99.90;;;;;;4867561;29;20053;-60
2022/11/04 05:48:47;;;;;;;25.67;11.20;;;7.80;99.90;;;;;;4865198;29;20102;-60
2022/11/04 05:51:19;;;;;;;20.38;11.02;;;7.80;99.90;;;;;;4865998;29;20038;-61
2022/11/04 05:53:46;;;;;;;16.25;10.95;;;7.80;99.90;;;;;;4865402;29;20493;-60
2022/11/04 05:56:13;;;;;;;20.33;13.32;;;7.70;99.90;;;;;;4867798;29;20053;-60
2022/11/04 05:58:39;;;;;;;21.38;10.57;;;7.70;99.90;;;;;;4873182;29;20077;-61
2022/11/04 06:01:33;;;;;;;21.85;11.25;;;7.70;99.90;;;;;;4870917;29;20096;-60
2022/11/04 06:04:00;;;;;;;22.15;11.02;;;7.70;99.90;;;;;;4844933;29;20053;-61
2022/11/04 06:06:32;;;;;;;14.73;10.02;;;7.70;99.90;;;;;;4878936;29;20108;-61
2022/11/04 06:08:59;;;;;;;23.05;10.60;;;7.70;99.90;;;;;;4861380;29;20041;-60
2022/11/04 06:11:27;;;;;;;17.38;10.93;;;7.70;99.90;;;;;;4880794;29;20052;-60
2022/11/04 06:13:55;;;;;;;20.08;10.25;;;7.70;99.90;;;;;;4860933;29;20045;-60
2022/11/04 06:16:22;;;;;;;18.05;9.65;;;7.60;99.90;;;;;;4885447;29;20041;-60
2022/11/04 06:18:49;;;;;;;24.35;9.40;;;7.60;99.90;;;;;;4879828;29;20101;-60
2022/11/04 06:21:17;;;;;;;15.95;9.27;;;7.60;99.90;;;;;;4876823;29;20477;-60
2022/11/04 06:23:44;;;;;;;17.25;8.55;;;7.60;99.90;;;;;;4883627;29;20055;-61
2022/11/04 06:26:11;;;;;;;14.52;8.57;;;7.50;99.90;;;;;;4877503;29;20057;-62
2022/11/04 06:28:38;;;;;;;14.20;7.90;;;7.50;99.90;;;;;;4884080;29;20075;-60
2022/11/04 06:31:06;;;;;;;18.08;8.73;;;7.50;99.90;;;;;;4875853;29;20041;-60
2022/11/04 06:33:33;;;;;;;14.90;7.93;;;7.50;99.90;;;;;;4875048;29;20124;-62
2022/11/04 06:36:03;;;;;;;;;;;7.50;99.90;;;;;;4863735;29;20052;-60
2022/11/04 06:38:31;;;;;;;28.77;9.20;;;7.50;99.90;;;;;;4877484;29;19930;-66
2022/11/04 06:40:58;;;;;;;13.95;7.53;;;7.50;99.90;;;;;;4860827;29;20110;-61
2022/11/04 06:43:25;;;;;;;14.38;8.32;;;7.50;99.90;;;;;;4856316;29;20045;-60
2022/11/04 06:45:56;;;;;;;33.28;10.32;;;7.50;99.90;;;;;;4859271;29;20553;-60
2022/11/04 06:48:23;;;;;;;14.23;8.93;;;7.40;99.90;;;;;;4885059;29;20386;-60
2022/11/04 06:50:50;;;;;;;17.52;8.43;;;7.40;99.90;;;;;;4880417;29;20056;-65
2022/11/04 06:53:17;;;;;;;18.55;9.63;;;7.40;99.90;;;;;;4878815;29;20048;-60
2022/11/04 06:55:44;;;;;;;15.90;10.27;;;7.40;99.90;;;;;;4881849;29;20049;-61
2022/11/04 06:58:10;;;;;;;40.20;28.42;;;7.40;99.90;;;;;;4860209;29;20045;-58
2022/11/04 07:00:37;;;;;;;18.88;10.80;;;7.40;99.90;;;;;;4878786;29;20100;-60
2022/11/04 07:03:04;;;;;;;16.35;8.90;;;7.40;99.90;;;;;;4860778;29;20064;-61
2022/11/04 07:05:32;;;;;;;19.60;9.18;;;7.40;99.90;;;;;;4860734;29;20052;-60
2022/11/04 07:07:59;;;;;;;17.60;9.82;;;7.40;99.90;;;;;;4877904;29;20069;-60
2022/11/04 07:10:26;;;;;;;19.83;9.30;;;7.40;99.90;;;;;;4862313;29;20049;-60
2022/11/04 07:12:53;;;;;;;19.67;8.48;;;7.30;99.90;;;;;;4860512;29;20552;-60
2022/11/04 07:15:20;;;;;;;95.35;77.88;;;7.30;99.90;;;;;;4858157;29;20129;-60
2022/11/04 07:17:53;;;;;;;225.63;180.70;;;7.30;99.90;;;;;;4879661;29;20049;-60
2022/11/04 07:20:19;;;;;;;149.63;107.85;;;7.30;99.90;;;;;;4882295;29;20101;-60
2022/11/04 07:22:46;;;;;;;39.78;26.90;;;7.30;99.90;;;;;;4860651;29;20072;-61
2022/11/04 07:25:13;;;;;;;18.83;13.07;;;7.30;99.90;;;;;;4875412;29;20382;-62
2022/11/04 07:27:41;;;;;;;254.60;186.40;;;7.30;99.90;;;;;;4881179;29;20064;-59
2022/11/04 07:30:08;;;;;;;38.22;27.13;;;7.20;99.90;;;;;;4880412;29;20108;-64
2022/11/04 07:32:35;;;;;;;24.60;11.85;;;7.20;99.90;;;;;;4846490;29;20044;-63
2022/11/04 07:35:02;;;;;;;14.95;9.85;;;7.20;99.90;;;;;;4863969;29;20045;-62
2022/11/04 07:37:29;;;;;;;17.70;10.23;;;7.20;99.90;;;;;;4880335;29;20108;-63
2022/11/04 07:39:55;;;;;;;15.77;9.48;;;7.20;99.90;;;;;;4869849;29;20454;-63
2022/11/04 07:42:22;;;;;;;14.07;9.63;;;7.20;99.90;;;;;;4894833;29;20049;-65
2022/11/04 07:44:49;;;;;;;16.90;10.40;;;7.20;99.90;;;;;;4873543;29;20473;-66
2022/11/04 07:47:16;;;;;;;147.27;100.38;;;7.20;99.90;;;;;;4868133;29;20077;-62
2022/11/04 07:49:43;;;;;;;41.95;30.85;;;7.20;99.90;;;;;;4887285;29;20077;-63
2022/11/04 07:52:10;;;;;;;551.63;370.88;;;7.30;99.90;;;;;;4882782;29;20140;-64
2022/11/04 07:54:37;;;;;;;34.25;24.27;;;7.30;99.90;;;;;;4863521;29;20045;-60
2022/11/04 07:57:04;;;;;;;18.27;12.75;;;7.30;99.90;;;;;;4887198;29;20044;-61
2022/11/04 07:59:31;;;;;;;15.77;10.18;;;7.40;99.90;;;;;;4883795;29;20053;-62
2022/11/04 08:01:57;;;;;;;38.88;29.88;;;7.30;99.90;;;;;;4889724;29;20052;-59
2022/11/04 08:04:25;;;;;;;19.98;10.93;;;7.30;99.90;;;;;;4890686;29;20041;-61
2022/11/04 08:06:52;;;;;;;15.43;9.32;;;7.30;99.90;;;;;;4889139;29;20152;-65
2022/11/04 08:09:19;;;;;;;14.60;8.80;;;7.40;99.90;;;;;;4863239;29;20053;-62
2022/11/04 08:11:46;;;;;;;18.13;9.02;;;7.40;99.90;;;;;;4880570;29;20109;-64
2022/11/04 08:14:13;;;;;;;14.70;8.68;;;7.40;99.90;;;;;;4863065;29;20048;-62
2022/11/04 08:16:39;;;;;;;16.25;9.40;;;7.40;99.90;;;;;;4879962;29;20049;-63
2022/11/04 08:19:06;;;;;;;13.63;8.60;;;7.40;99.90;;;;;;4878472;29;20041;-62
2022/11/04 08:21:33;;;;;;;13.77;8.02;;;7.40;99.90;;;;;;4863963;29;20092;-70
2022/11/04 08:24:02;;;;;;;16.75;8.68;;;7.50;99.90;;;;;;4865011;29;20049;-63
2022/11/04 08:26:29;;;;;;;15.20;8.20;;;7.50;99.90;;;;;;4866307;29;20056;-63
2022/11/04 08:28:56;;;;;;;18.50;8.45;;;7.50;99.90;;;;;;4888471;29;20084;-60
2022/11/04 08:31:27;;;;;;;16.38;8.82;;;7.50;99.90;;;;;;4881526;29;20051;-61
2022/11/04 08:33:54;;;;;;;86.75;61.03;;;7.60;99.90;;;;;;4863900;29;20085;-57
2022/11/04 08:36:26;;;;;;;40.72;27.35;;;7.60;99.90;;;;;;4875333;29;20076;-60
2022/11/04 08:38:53;;;;;;;28.45;9.68;;;7.70;99.90;;;;;;4877710;29;20045;-62
2022/11/04 08:41:22;;;;;;;37.50;24.80;;;7.70;99.90;;;;;;4877902;29;20061;-60
2022/11/04 08:43:49;;;;;;;24.30;12.00;;;7.70;99.90;;;;;;4879383;29;20117;-62
2022/11/04 08:46:16;;;;;;;16.02;7.78;;;7.80;99.90;;;;;;4864902;29;20048;-59
2022/11/04 08:48:43;;;;;;;13.27;6.60;;;7.80;99.90;;;;;;4862826;29;20093;-60
2022/11/04 08:51:16;;;;;;;15.88;6.75;;;7.80;99.90;;;;;;4863525;29;20170;-60
2022/11/04 08:53:44;;;;;;;13.23;6.40;;;7.80;99.90;;;;;;4878441;29;20117;-60
2022/11/04 08:56:16;;;;;;;11.23;6.43;;;7.80;99.90;;;;;;4847619;29;20049;-61
2022/11/04 08:58:43;;;;;;;16.60;6.90;;;7.90;99.90;;;;;;4877914;29;20041;-61
2022/11/04 09:01:11;;;;;;;11.68;5.85;;;7.90;99.90;;;;;;4862654;29;20454;-61
2022/11/04 09:03:39;;;;;;;16.48;7.30;;;8.00;99.90;;;;;;4866449;29;20053;-62
2022/11/04 09:06:07;;;;;;;14.43;6.68;;;8.00;99.90;;;;;;4885019;29;20044;-61
2022/11/04 09:08:34;;;;;;;16.85;6.65;;;8.00;99.90;;;;;;4862324;29;20041;-61
2022/11/04 09:11:00;;;;;;;13.85;5.60;;;8.10;99.90;;;;;;4862738;29;20045;-62
2022/11/04 09:13:27;;;;;;;10.77;5.93;;;8.10;99.90;;;;;;4846690;29;20481;-61
2022/11/04 09:15:54;;;;;;;9.90;5.18;;;8.10;99.90;;;;;;4860460;29;20493;-69
2022/11/04 09:18:21;;;;;;;11.55;5.43;;;8.20;99.90;;;;;;4861381;29;20120;-61
2022/11/04 09:20:48;;;;;;;15.27;5.80;;;8.20;99.90;;;;;;4880066;29;20933;-63
2022/11/04 09:23:15;;;;;;;10.07;4.82;;;8.30;99.90;;;;;;4876225;29;20069;-60
2022/11/04 09:25:42;;;;;;;13.82;5.38;;;8.30;99.90;;;;;;4852302;29;20112;-60
2022/11/04 09:28:09;;;;;;;8.88;4.85;;;8.30;99.90;;;;;;4858717;29;20049;-61
2022/11/04 09:30:36;;;;;;;12.68;5.50;;;8.40;99.90;;;;;;4878177;29;20036;-60
2022/11/04 09:33:03;;;;;;;14.27;6.10;;;8.40;99.90;;;;;;4876985;29;20500;-61
2022/11/04 09:35:30;;;;;;;17.35;8.52;;;8.40;99.90;;;;;;4862326;29;20485;-60
2022/11/04 09:37:58;;;;;;;17.38;6.80;;;8.50;99.90;;;;;;4860407;29;20397;-63
2022/11/04 09:40:25;;;;;;;14.15;4.95;;;8.50;99.90;;;;;;4861856;29;20056;-59
2022/11/04 09:43:15;;;;;;;11.35;5.43;;;8.50;99.90;;;;;;4876074;29;20044;-62
2022/11/04 09:45:42;;;;;;;14.52;6.13;;;8.50;99.90;;;;;;4850203;29;20109;-60
2022/11/04 09:48:28;;;;;;;14.85;5.15;;;8.60;99.90;;;;;;4859898;29;20045;-65
2022/11/04 09:50:57;;;;;;;12.18;5.30;;;8.70;99.90;;;;;;4856436;29;20472;-60
2022/11/04 09:53:41;;;;;;;11.93;5.28;;;8.70;99.90;;;;;;4860728;29;20049;-61
2022/11/04 09:56:08;;;;;;;12.00;4.20;;;8.80;99.90;;;;;;4861072;29;20051;-62
2022/11/04 09:58:36;;;;;;;11.55;5.03;;;8.80;99.90;;;;;;4877279;29;20051;-64
2022/11/04 10:01:27;;;;;;;9.85;4.22;;;8.90;99.90;;;;;;4842476;29;20188;-60
2022/11/04 10:04:23;;;;;;;13.50;4.97;;;8.90;99.90;;;;;;4853902;29;20052;-61
2022/11/04 10:06:58;;;;;;;11.63;4.85;;;8.90;99.90;;;;;;4854919;29;20053;-57
2022/11/04 10:09:32;;;;;;;12.43;5.30;;;9.00;99.90;;;;;;4858777;29;20059;-61
2022/11/04 10:12:30;;;;;;;12.13;5.53;;;9.00;99.90;;;;;;4884404;29;20469;-57
2022/11/04 10:15:40;;;;;;;17.48;5.15;;;9.10;99.90;;;;;;4853661;29;20068;-58
2022/11/04 10:18:17;;;;;;;11.70;4.15;;;9.20;99.90;;;;;;4855058;29;20047;-60
2022/11/04 10:21:06;;;;;;;10.93;5.00;;;9.20;99.90;;;;;;4857157;29;20052;-68
2022/11/04 10:23:37;;;;;;;;;;;9.30;99.90;;;;;;4857708;29;20045;-61
2022/11/04 10:26:17;;;;;;;11.48;5.10;;;9.30;99.90;;;;;;4882009;29;20293;-59
2022/11/04 10:29:22;;;;;;;7.70;4.53;;;9.40;99.90;;;;;;4876321;29;20505;-65
2022/11/04 10:31:49;;;;;;;6.63;3.42;;;9.40;99.90;;;;;;4839480;29;20112;-61
2022/11/04 10:34:41;;;;;;;13.70;4.65;;;9.50;99.90;;;;;;4860838;29;20041;-58
2022/11/04 10:37:11;;;;;;;10.55;4.55;;;9.60;99.90;;;;;;4875575;29;20052;-62
2022/11/04 10:39:45;;;;;;;9.35;4.40;;;9.60;99.90;;;;;;4851227;29;20128;-62
2022/11/04 10:42:13;;;;;;;9.88;4.57;;;9.60;99.90;;;;;;4860964;29;20049;-61
2022/11/04 10:44:40;;;;;;;11.20;3.90;;;9.60;99.90;;;;;;4861417;29;20108;-61
2022/11/04 10:47:07;;;;;;;8.90;3.95;;;9.60;99.90;;;;;;4866911;29;20080;-62
2022/11/04 10:49:54;;;;;;;7.55;3.97;;;9.70;99.90;;;;;;4870361;29;20037;-63
2022/11/04 10:52:41;;;;;;;7.03;3.95;;;9.70;99.90;;;;;;4878604;29;20411;-61
2022/11/04 10:55:26;;;;;;;13.23;4.55;;;9.80;99.90;;;;;;4877313;29;20140;-63
2022/11/04 10:57:58;;;;;;;12.90;5.00;;;9.80;99.90;;;;;;4860126;29;20056;-61
2022/11/04 11:00:37;;;;;;;11.55;5.63;;;9.90;99.90;;;;;;4876601;29;20116;-62
2022/11/04 11:03:22;;;;;;;10.45;5.22;;;9.90;99.90;;;;;;4877345;29;20044;-61
2022/11/04 11:05:50;;;;;;;12.50;4.90;;;10.00;99.90;;;;;;4857209;29;20049;-64
2022/11/04 11:08:31;;;;;;;8.73;4.35;;;10.10;99.90;;;;;;4853291;29;20091;-62
2022/11/04 11:10:58;;;;;;;12.93;5.35;;;10.10;99.90;;;;;;4841293;29;20048;-62
2022/11/04 11:13:27;;;;;;;15.88;5.63;;;10.20;99.90;;;;;;4844495;29;20057;-62
2022/11/04 11:16:07;;;;;;;13.20;4.43;;;10.20;99.90;;;;;;4859216;29;20397;-61
2022/11/04 11:18:37;;;;;;;13.75;4.43;;;10.30;99.90;;;;;;4857977;29;20337;-60
2022/11/04 11:21:09;;;;;;;11.57;5.15;;;10.30;99.90;;;;;;4875276;29;20056;-60
2022/11/04 11:23:38;;;;;;;16.58;5.63;;;10.30;99.90;;;;;;4843453;29;20052;-63
2022/11/04 11:26:06;;;;;;;13.80;5.80;;;10.40;99.90;;;;;;4856480;29;20059;-69
2022/11/04 11:28:37;;;;;;;12.00;7.03;;;10.40;99.90;;;;;;4875358;29;20124;-58
2022/11/04 11:31:15;;;;;;;13.75;6.75;;;10.40;99.90;;;;;;4856553;29;20053;-61
2022/11/04 11:33:56;;;;;;;14.23;6.07;;;10.40;99.90;;;;;;4846895;29;20113;-64
2022/11/04 11:36:29;;;;;;;13.90;7.18;;;10.50;99.90;;;;;;4879380;29;20041;-61
2022/11/04 11:39:11;;;;;;;13.02;5.57;;;10.60;99.90;;;;;;4859459;29;20049;-60
2022/11/04 11:42:10;;;;;;;16.00;6.72;;;10.70;99.90;;;;;;4856809;29;20430;-60
2022/11/04 11:44:43;;;;;;;12.45;5.60;;;10.70;99.90;;;;;;4867271;29;20448;-59
2022/11/04 11:47:28;;;;;;;9.80;6.20;;;10.80;99.90;;;;;;4858897;29;20491;-63
2022/11/04 11:50:18;;;;;;;10.35;5.00;;;10.90;99.90;;;;;;4872670;29;20076;-64
2022/11/04 11:52:45;;;;;;;11.05;5.25;;;11.00;99.90;;;;;;4873067;29;20053;-55
2022/11/04 11:55:15;;;;;;;98.68;77.15;;;11.00;99.90;;;;;;4863042;29;20049;-58
2022/11/04 11:57:49;;;;;;;;;;;11.00;99.90;;;;;;4876313;29;20472;-59
2022/11/04 12:00:39;;;;;;;18.83;8.57;;;11.00;99.90;;;;;;4877148;29;20395;-59
2022/11/04 12:03:14;;;;;;;9.35;4.82;;;11.00;99.90;;;;;;4849569;29;20047;-57
2022/11/04 12:06:18;;;;;;;13.75;5.38;;;10.90;99.90;;;;;;4859273;29;20106;-55
2022/11/04 12:09:05;;;;;;;15.15;6.10;;;10.90;99.90;;;;;;4876066;29;20056;-56
2022/11/04 12:12:08;;;;;;;14.73;4.50;;;10.90;99.90;;;;;;4878555;29;20134;-56
2022/11/04 12:14:56;;;;;;;16.17;6.05;;;10.90;99.90;;;;;;4860034;29;20089;-59
2022/11/04 12:18:00;;;;;;;211.93;154.98;;;10.90;99.90;;;;;;4869938;29;20044;-63
2022/11/04 12:20:36;;;;;;;20.08;11.77;;;11.00;99.90;;;;;;4876979;29;20056;-62
2022/11/04 12:23:09;;;;;;;13.15;6.68;;;11.00;99.90;;;;;;4889622;29;20505;-58
2022/11/04 12:26:04;;;;;;;16.58;5.25;;;10.90;99.90;;;;;;4881986;29;20090;-55
2022/11/04 12:28:52;;;;;;;10.77;4.70;;;10.90;99.90;;;;;;4860382;29;20049;-56
2022/11/04 12:31:28;;;;;;;12.45;5.32;;;11.00;99.90;;;;;;4864940;29;20045;-56
2022/11/04 12:34:19;;;;;;;14.10;5.47;;;11.00;99.90;;;;;;4885870;29;20094;-59
2022/11/04 12:36:58;;;;;;;8.68;4.10;;;11.00;99.90;;;;;;4880225;29;20055;-59
2022/11/04 12:39:29;;;;;;;14.48;5.50;;;11.00;99.90;;;;;;4850054;29;20480;-55
2022/11/04 12:42:14;;;;;;;10.00;3.90;;;11.00;99.90;;;;;;4866842;29;20048;-57
2022/11/04 12:45:28;;;;;;;8.65;3.80;;;11.00;99.90;;;;;;4888799;29;20060;-64
2022/11/04 12:47:59;;;;;;;10.60;3.75;;;11.00;99.90;;;;;;4879900;29;20045;-62
2022/11/04 12:50:39;;;;;;;12.23;3.63;;;11.10;99.90;;;;;;4861007;29;20477;-59
2022/11/04 12:53:29;;;;;;;7.18;2.92;;;11.10;99.90;;;;;;4888869;29;20044;-58
2022/11/04 12:56:09;;;;;;;8.82;2.70;;;11.20;99.90;;;;;;4856771;29;20040;-63
2022/11/04 12:59:00;;;;;;;10.20;3.40;;;11.10;99.90;;;;;;4884576;29;20044;-56
2022/11/04 13:01:38;;;;;;;8.80;3.97;;;11.10;99.90;;;;;;4882508;29;20477;-58
2022/11/04 13:04:10;;;;;;;12.02;3.88;;;11.20;99.90;;;;;;4878807;29;20041;-60
2022/11/04 13:07:00;;;;;;;6.50;2.67;;;11.20;99.90;;;;;;4861030;29;20056;-56
2022/11/04 13:09:42;;;;;;;17.80;4.53;;;11.20;99.90;;;;;;4886976;29;20049;-69
2022/11/04 13:12:17;;;;;;;8.25;3.60;;;11.20;99.90;;;;;;4863229;29;20041;-61
2022/11/04 13:14:48;;;;;;;12.55;3.83;;;11.20;99.90;;;;;;4860881;29;20436;-61
2022/11/04 13:17:17;;;;;;;9.88;3.63;;;11.20;99.90;;;;;;4859890;29;20097;-61
2022/11/04 13:19:50;;;;;;;9.70;3.50;;;11.20;99.90;;;;;;4876713;29;20061;-60
2022/11/04 13:22:32;;;;;;;8.50;3.13;;;11.30;99.90;;;;;;4860728;29;20045;-63
2022/11/04 13:24:59;;;;;;;8.43;2.85;;;11.30;99.90;;;;;;4875960;29;20089;-63
2022/11/04 13:27:32;;;;;;;10.18;6.80;;;11.30;99.90;;;;;;4877702;29;20250;-64
2022/11/04 13:30:06;;;;;;;14.50;9.38;;;11.30;99.90;;;;;;4862722;29;20049;-61
2022/11/04 13:32:47;;;;;;;9.43;4.15;;;11.40;99.90;;;;;;4844206;29;20056;-56
2022/11/04 13:35:20;;;;;;;7.05;2.85;;;11.40;99.90;;;;;;4854982;29;20041;-56
2022/11/04 13:38:04;;;;;;;5.72;2.42;;;11.40;99.90;;;;;;4883571;29;20053;-60
2022/11/04 13:41:06;;;;;;;6.50;2.45;;;11.40;99.90;;;;;;4859919;29;20459;-58
2022/11/04 13:43:39;;;;;;;8.02;2.75;;;11.30;99.90;;;;;;4869796;29;20124;-58
2022/11/04 13:46:09;;;;;;;7.43;2.97;;;11.30;99.90;;;;;;4862750;29;20093;-62